createdAt,value
2022-08-22T00:01:11.407Z,76177.16
2022-08-22T00:02:48.332Z,75443.69
2022-08-22T00:02:55.669Z,76141.56
2022-08-22T00:02:57.282Z,76038.75
2022-08-22T00:03:02.035Z,75410.09
2022-08-22T00:03:04.654Z,75989.34
2022-08-22T00:03:09.033Z,76046.66
2022-08-22T00:03:16.334Z,76192.97
2022-08-22T00:04:39.535Z,76191.00
2022-08-22T00:06:15.289Z,76212.75
2022-08-22T00:08:00.628Z,76220.66
2022-08-22T00:09:37.287Z,76224.63
2022-08-22T00:11:39.926Z,76226.59
2022-08-22T00:13:17.259Z,76232.53
2022-08-22T00:14:54.404Z,76230.53
2022-08-22T00:16:44.879Z,76238.47
2022-08-22T00:18:40.563Z,76240.44
2022-08-22T00:20:14.814Z,76236.47
2022-08-22T00:21:52.318Z,76234.50
2022-08-22T00:23:35.705Z,76212.75
2022-08-22T00:25:24.596Z,76212.75
2022-08-22T00:26:59.287Z,76200.88
2022-08-22T00:28:43.652Z,76200.88
2022-08-22T00:30:19.543Z,76204.84
2022-08-22T00:32:08.783Z,76208.78
2022-08-22T00:33:59.286Z,76206.81
2022-08-22T00:35:35.419Z,76206.81
2022-08-22T00:37:09.464Z,76208.78
2022-08-22T00:38:51.816Z,76204.84
2022-08-22T00:41:00.574Z,76200.88
2022-08-22T00:42:49.677Z,76204.84
2022-08-22T00:44:41.620Z,76212.75
2022-08-22T00:46:17.116Z,76212.75
2022-08-22T00:47:54.467Z,76212.75
2022-08-22T00:49:43.593Z,76224.63
2022-08-22T00:51:35.680Z,76228.56
2022-08-22T00:53:28.424Z,76226.59
2022-08-22T00:55:16.738Z,76230.53
2022-08-22T00:57:04.285Z,76254.28
2022-08-22T00:58:49.262Z,76256.25
2022-08-22T01:00:27.728Z,76248.34
2022-08-22T01:02:19.390Z,76250.31
2022-08-22T01:04:04.247Z,76256.25
2022-08-22T01:05:49.618Z,76268.13
2022-08-22T01:07:25.570Z,76295.78
2022-08-22T01:09:29.983Z,76311.63
2022-08-22T01:11:18.950Z,76319.53
2022-08-22T01:13:04.189Z,76323.47
2022-08-22T01:14:49.816Z,76319.53
2022-08-22T01:16:35.453Z,76311.63
2022-08-22T01:18:15.356Z,76333.38
2022-08-22T01:19:57.729Z,76341.28
2022-08-22T01:21:49.890Z,76329.41
2022-08-22T01:23:46.423Z,76293.81
2022-08-22T01:25:35.138Z,76256.25
2022-08-22T01:27:46.851Z,76218.69
2022-08-22T01:29:32.254Z,76212.75
2022-08-22T01:31:11.493Z,76196.94
2022-08-22T01:33:03.197Z,76185.06
2022-08-22T01:35:12.331Z,76177.16
2022-08-22T01:36:51.800Z,76159.38
2022-08-22T01:38:44.561Z,76185.06
2022-08-22T01:40:30.401Z,76208.78
2022-08-22T01:42:15.236Z,76242.41
2022-08-22T01:44:00.615Z,76244.38
2022-08-22T01:45:44.941Z,76240.44
2022-08-22T01:47:39.935Z,76240.44
2022-08-22T01:49:25.718Z,76167.28
2022-08-22T01:51:04.181Z,76078.31
2022-08-22T01:52:45.541Z,76011.09
2022-08-22T01:54:28.453Z,76005.16
2022-08-22T01:56:07.120Z,75987.34
2022-08-22T01:57:51.528Z,75928.03
2022-08-22T01:59:53.373Z,75888.50
2022-08-22T02:01:29.854Z,75839.06
2022-08-22T02:03:21.952Z,75773.84
2022-08-22T02:05:01.539Z,75730.34
2022-08-22T02:06:53.128Z,75643.34
2022-08-22T02:08:45.640Z,75578.13
2022-08-22T02:10:37.633Z,75548.47
2022-08-22T02:12:21.589Z,75522.75
2022-08-22T02:13:59.807Z,75504.97
2022-08-22T02:15:39.410Z,75477.28
2022-08-22T02:17:22.619Z,75473.34
2022-08-22T02:19:08.325Z,75463.47
2022-08-22T02:20:56.076Z,75455.56
2022-08-22T02:22:36.036Z,75431.84
2022-08-22T02:24:36.304Z,75421.94
2022-08-22T02:26:17.727Z,75386.38
2022-08-22T02:28:00.449Z,75327.06
2022-08-22T02:29:43.283Z,75313.22
2022-08-22T02:31:24.122Z,75255.91
2022-08-22T02:33:03.367Z,75228.22
2022-08-22T02:34:54.596Z,75190.66
2022-08-22T02:36:49.339Z,75137.28
2022-08-22T02:38:25.905Z,75113.56
2022-08-22T02:40:17.911Z,75076.00
2022-08-22T02:41:59.834Z,75058.22
2022-08-22T02:44:02.590Z,75028.56
2022-08-22T02:45:45.691Z,74977.19
2022-08-22T02:47:32.566Z,74919.88
2022-08-22T02:49:12.751Z,74866.50
2022-08-22T02:51:13.601Z,74826.97
2022-08-22T02:53:05.210Z,74777.56
2022-08-22T02:55:00.490Z,74730.13
2022-08-22T02:56:37.827Z,74969.28
2022-08-22T02:58:11.170Z,75172.88
2022-08-22T03:00:32.828Z,75244.03
2022-08-22T03:02:20.814Z,75275.66
2022-08-22T03:04:14.017Z,75257.88
2022-08-22T03:06:01.305Z,75034.50
2022-08-22T03:07:40.022Z,74900.09
2022-08-22T03:09:16.687Z,74793.38
2022-08-22T03:11:14.006Z,74747.91
2022-08-22T03:12:59.518Z,74670.81
2022-08-22T03:14:47.641Z,74603.63
2022-08-22T03:16:40.080Z,74658.97
2022-08-22T03:18:14.518Z,74680.72
2022-08-22T03:19:57.301Z,74629.31
2022-08-22T03:21:37.721Z,74530.50
2022-08-22T03:23:16.483Z,74467.25
2022-08-22T03:25:00.450Z,74489.00
2022-08-22T03:26:45.432Z,74502.84
2022-08-22T03:28:25.293Z,74433.66
2022-08-22T03:30:02.094Z,74390.19
2022-08-22T03:31:36.294Z,74336.81
2022-08-22T03:33:23.172Z,74404.00
2022-08-22T03:35:09.554Z,74362.50
2022-08-22T03:36:48.329Z,74441.56
2022-08-22T03:38:34.020Z,74386.22
2022-08-22T03:40:31.796Z,74540.38
2022-08-22T03:42:30.131Z,74570.03
2022-08-22T03:44:12.231Z,74587.81
2022-08-22T03:46:17.790Z,74508.75
2022-08-22T03:48:08.454Z,74526.53
2022-08-22T03:49:47.999Z,74400.06
2022-08-22T03:51:40.281Z,74332.88
2022-08-22T03:53:32.718Z,74287.41
2022-08-22T03:55:13.007Z,74295.31
2022-08-22T03:57:07.819Z,74263.69
2022-08-22T03:58:47.201Z,74236.03
2022-08-22T04:00:47.573Z,74210.34
2022-08-22T04:02:43.195Z,74137.22
2022-08-22T04:04:40.363Z,74073.97
2022-08-22T04:06:27.832Z,74024.59
2022-08-22T04:08:01.393Z,74058.19
2022-08-22T04:09:44.300Z,74026.56
2022-08-22T04:11:17.441Z,74158.97
2022-08-22T04:13:09.208Z,74273.59
2022-08-22T04:14:42.286Z,74390.19
2022-08-22T04:16:33.800Z,74287.41
2022-08-22T04:18:25.154Z,74243.94
2022-08-22T04:19:58.613Z,74313.09
2022-08-22T04:21:43.952Z,74299.28
2022-08-22T04:23:35.757Z,74317.06
2022-08-22T04:25:36.736Z,74342.75
2022-08-22T04:27:12.959Z,74257.78
2022-08-22T04:28:49.940Z,74133.28
2022-08-22T04:30:26.364Z,74070.03
2022-08-22T04:32:22.471Z,74097.69
2022-08-22T04:34:07.849Z,74121.41
2022-08-22T04:35:52.792Z,74066.06
2022-08-22T04:37:34.019Z,74034.47
2022-08-22T04:39:21.659Z,74121.41
2022-08-22T04:41:04.719Z,74184.66
2022-08-22T04:42:46.183Z,74247.88
2022-08-22T04:44:19.942Z,74220.22
2022-08-22T04:45:57.382Z,74265.69
2022-08-22T04:47:43.692Z,74239.97
2022-08-22T04:49:39.147Z,74226.16
2022-08-22T04:51:31.900Z,74131.28
2022-08-22T04:53:23.799Z,74135.25
2022-08-22T04:55:09.331Z,73965.28
2022-08-22T04:57:00.983Z,73925.78
2022-08-22T04:58:55.901Z,73886.25
2022-08-22T05:00:36.492Z,73852.66
2022-08-22T05:02:12.346Z,73868.47
2022-08-22T05:04:05.812Z,73819.06
2022-08-22T05:05:40.737Z,73757.81
2022-08-22T05:07:20.359Z,73674.81
2022-08-22T05:08:54.698Z,73647.16
2022-08-22T05:10:34.099Z,73645.19
2022-08-22T05:12:14.838Z,73661.00
2022-08-22T05:13:54.310Z,73554.28
2022-08-22T05:15:31.492Z,73623.44
2022-08-22T05:17:08.386Z,73566.16
2022-08-22T05:18:47.232Z,73605.66
2022-08-22T05:20:23.917Z,73631.34
2022-08-22T05:21:57.613Z,73579.97
2022-08-22T05:23:40.337Z,73572.06
2022-08-22T05:25:15.588Z,73635.31
2022-08-22T05:26:51.608Z,73753.84
2022-08-22T05:28:36.146Z,73811.16
2022-08-22T05:30:13.715Z,73789.44
2022-08-22T05:31:52.259Z,73718.28
2022-08-22T05:33:44.058Z,73745.94
2022-08-22T05:35:19.632Z,73844.75
2022-08-22T05:37:12.935Z,73864.50
2022-08-22T05:38:49.735Z,73745.94
2022-08-22T05:40:25.728Z,73781.53
2022-08-22T05:42:01.149Z,73749.91
2022-08-22T05:43:38.461Z,73783.50
2022-08-22T05:45:14.242Z,73799.31
2022-08-22T05:46:50.865Z,73813.13
2022-08-22T05:48:35.948Z,73821.03
2022-08-22T05:50:21.146Z,73749.91
2022-08-22T05:52:22.517Z,73815.13
2022-08-22T05:54:04.297Z,73878.34
2022-08-22T05:55:43.993Z,73882.31
2022-08-22T05:57:20.877Z,73805.22
2022-08-22T05:59:08.580Z,73740.03
2022-08-22T06:00:43.683Z,73686.69
2022-08-22T06:02:23.308Z,73623.44
2022-08-22T06:04:09.386Z,73641.22
2022-08-22T06:05:44.167Z,73609.63
2022-08-22T06:07:41.177Z,73556.25
2022-08-22T06:09:24.787Z,73714.34
2022-08-22T06:11:22.346Z,73823.03
2022-08-22T06:13:14.369Z,73815.13
2022-08-22T06:14:48.179Z,73821.03
2022-08-22T06:16:47.563Z,73862.53
2022-08-22T06:18:25.591Z,73834.88
2022-08-22T06:20:00.003Z,73785.47
2022-08-22T06:21:39.596Z,73813.13
2022-08-22T06:23:19.634Z,73979.13
2022-08-22T06:24:54.174Z,73921.81
2022-08-22T06:26:31.525Z,73996.91
2022-08-22T06:28:08.552Z,74006.78
2022-08-22T06:29:43.774Z,73985.06
2022-08-22T06:31:37.229Z,74113.50
2022-08-22T06:33:15.657Z,74119.44
2022-08-22T06:34:50.945Z,74164.88
2022-08-22T06:36:34.470Z,74091.78
2022-08-22T06:38:07.907Z,74119.44
2022-08-22T06:39:44.374Z,74099.66
2022-08-22T06:41:18.790Z,74137.22
2022-08-22T06:42:53.476Z,74259.75
2022-08-22T06:44:31.046Z,74299.28
2022-08-22T06:46:06.317Z,74334.84
2022-08-22T06:47:43.474Z,74317.06
2022-08-22T06:49:23.802Z,74295.31
2022-08-22T06:51:00.651Z,74303.22
2022-08-22T06:52:35.207Z,74295.31
2022-08-22T06:54:12.907Z,74259.75
2022-08-22T06:55:51.543Z,74243.94
2022-08-22T06:57:44.511Z,74271.59
2022-08-22T06:59:22.955Z,74319.03
2022-08-22T07:01:11.327Z,74297.28
2022-08-22T07:02:52.946Z,74265.69
2022-08-22T07:04:27.027Z,74253.81
2022-08-22T07:06:00.749Z,74255.78
2022-08-22T07:07:36.766Z,74354.59
2022-08-22T07:09:23.525Z,74342.75
2022-08-22T07:11:19.956Z,74334.84
2022-08-22T07:12:54.928Z,74358.56
2022-08-22T07:14:33.531Z,74382.28
2022-08-22T07:16:09.391Z,74330.88
2022-08-22T07:17:54.815Z,74322.97
2022-08-22T07:19:35.535Z,74354.59
2022-08-22T07:21:09.883Z,74471.22
2022-08-22T07:22:54.062Z,74417.84
2022-08-22T07:24:31.988Z,74479.13
2022-08-22T07:26:11.643Z,74449.47
2022-08-22T07:27:53.870Z,74445.50
2022-08-22T07:29:46.345Z,74406.00
2022-08-22T07:31:20.025Z,74415.88
2022-08-22T07:33:25.158Z,74447.50
2022-08-22T07:35:11.295Z,74477.13
2022-08-22T07:36:48.467Z,74490.97
2022-08-22T07:38:44.313Z,74492.94
2022-08-22T07:40:30.538Z,74425.75
2022-08-22T07:42:13.144Z,74374.38
2022-08-22T07:44:03.621Z,74417.84
2022-08-22T07:45:43.984Z,74404.00
2022-08-22T07:47:26.481Z,74421.81
2022-08-22T07:49:09.534Z,74406.00
2022-08-22T07:50:52.687Z,74390.19
2022-08-22T07:52:30.207Z,74409.94
2022-08-22T07:54:06.844Z,74398.09
2022-08-22T07:55:49.375Z,74384.25
2022-08-22T07:57:30.018Z,74463.31
2022-08-22T07:59:13.200Z,74469.22
2022-08-22T08:00:47.383Z,74489.00
2022-08-22T08:02:21.197Z,74437.63
2022-08-22T08:03:56.532Z,74453.41
2022-08-22T08:05:33.216Z,74415.88
2022-08-22T08:07:08.889Z,74411.91
2022-08-22T08:08:44.947Z,74445.50
2022-08-22T08:10:22.377Z,74407.97
2022-08-22T08:11:56.040Z,74413.91
2022-08-22T08:13:40.175Z,74451.44
2022-08-22T08:15:18.016Z,74398.09
2022-08-22T08:16:51.581Z,74429.72
2022-08-22T08:18:28.200Z,74392.16
2022-08-22T08:20:06.263Z,74445.50
2022-08-22T08:21:42.912Z,74443.53
2022-08-22T08:23:23.728Z,74461.31
2022-08-22T08:24:59.590Z,74504.81
2022-08-22T08:27:04.591Z,74469.22
2022-08-22T08:28:54.623Z,74453.41
2022-08-22T08:30:31.176Z,74459.34
2022-08-22T08:32:08.505Z,74465.28
2022-08-22T08:33:44.648Z,74455.41
2022-08-22T08:35:26.333Z,74453.41
2022-08-22T08:37:26.084Z,74413.91
2022-08-22T08:39:12.969Z,74447.50
2022-08-22T08:40:52.167Z,74427.72
2022-08-22T08:42:25.532Z,74425.75
2022-08-22T08:44:35.491Z,74441.56
2022-08-22T08:46:27.570Z,74413.91
2022-08-22T08:48:10.291Z,74407.97
2022-08-22T08:52:53.324Z,74356.59
2022-08-22T08:54:47.211Z,74394.13
2022-08-22T08:56:36.231Z,74411.91
2022-08-22T08:58:21.843Z,74425.75
2022-08-22T09:00:03.377Z,74406.00
2022-08-22T09:01:37.308Z,74372.41
2022-08-22T09:03:15.486Z,74378.31
2022-08-22T09:04:50.019Z,74322.97
2022-08-22T09:06:42.387Z,74330.88
2022-08-22T09:08:55.926Z,74348.69
2022-08-22T09:10:29.720Z,74370.41
2022-08-22T09:12:21.278Z,74358.56
2022-08-22T09:14:09.563Z,74374.38
2022-08-22T09:16:05.000Z,74372.41
2022-08-22T09:17:57.583Z,74392.16
2022-08-22T09:19:54.605Z,74398.09
2022-08-22T09:21:49.984Z,74386.22
2022-08-22T09:23:55.781Z,74366.47
2022-08-22T09:25:47.743Z,74364.50
2022-08-22T09:27:30.352Z,74374.38
2022-08-22T09:29:28.966Z,74374.38
2022-08-22T09:31:02.448Z,74402.03
2022-08-22T09:33:01.154Z,74368.44
2022-08-22T09:34:45.536Z,74342.75
2022-08-22T09:36:27.819Z,74382.28
2022-08-22T09:38:23.272Z,74376.34
2022-08-22T09:40:17.648Z,74328.91
2022-08-22T09:41:53.230Z,74277.53
2022-08-22T09:43:46.653Z,74321.00
2022-08-22T09:45:31.206Z,74360.53
2022-08-22T09:47:24.712Z,74366.47
2022-08-22T09:48:58.567Z,74362.50
2022-08-22T09:50:52.776Z,74378.31
2022-08-22T09:52:48.999Z,74326.94
2022-08-22T09:54:46.452Z,74311.13
2022-08-22T09:56:26.955Z,74311.13
2022-08-22T09:58:05.385Z,74354.59
2022-08-22T09:59:41.038Z,74338.78
2022-08-22T10:01:33.829Z,74315.09
2022-08-22T10:03:33.835Z,74275.56
2022-08-22T10:05:35.183Z,74324.97
2022-08-22T10:07:14.829Z,74338.78
2022-08-22T10:09:26.922Z,74342.75
2022-08-22T10:11:19.643Z,74313.09
2022-08-22T10:13:01.217Z,74309.16
2022-08-22T10:14:40.891Z,74303.22
2022-08-22T10:16:37.447Z,74279.50
2022-08-22T10:18:11.101Z,74287.41
2022-08-22T10:19:45.487Z,74311.13
2022-08-22T10:21:21.990Z,74334.84
2022-08-22T10:23:01.967Z,74386.22
2022-08-22T10:24:48.724Z,74386.22
2022-08-22T10:26:29.884Z,74366.47
2022-08-22T10:28:03.238Z,74360.53
2022-08-22T10:29:53.175Z,74326.94
2022-08-22T10:31:26.564Z,74285.44
2022-08-22T10:33:07.447Z,74297.28
2022-08-22T10:34:44.891Z,74356.59
2022-08-22T10:36:26.262Z,74358.56
2022-08-22T10:38:02.393Z,74350.66
2022-08-22T10:39:46.180Z,74354.59
2022-08-22T10:41:39.241Z,74299.28
2022-08-22T10:43:28.902Z,74251.84
2022-08-22T10:45:23.986Z,74303.22
2022-08-22T10:47:15.083Z,74330.88
2022-08-22T10:48:51.595Z,74307.19
2022-08-22T10:50:31.026Z,74291.38
2022-08-22T10:52:15.614Z,74261.72
2022-08-22T10:54:07.879Z,74247.88
2022-08-22T10:55:42.997Z,74238.00
2022-08-22T10:57:24.169Z,74228.13
2022-08-22T10:59:32.838Z,74295.31
2022-08-22T11:01:37.461Z,74334.84
2022-08-22T11:03:25.109Z,74358.56
2022-08-22T11:05:25.036Z,74330.88
2022-08-22T11:07:18.016Z,74305.19
2022-08-22T11:08:56.052Z,74287.41
2022-08-22T11:10:49.629Z,74273.59
2022-08-22T11:12:41.706Z,74243.94
2022-08-22T11:14:20.124Z,74255.78
2022-08-22T11:15:59.446Z,74265.69
2022-08-22T11:17:53.855Z,74243.94
2022-08-22T11:19:37.005Z,74271.59
2022-08-22T11:21:36.529Z,74307.19
2022-08-22T11:23:35.936Z,74322.97
2022-08-22T11:25:36.179Z,74267.66
2022-08-22T11:27:20.843Z,74297.28
2022-08-22T11:29:13.784Z,74305.19
2022-08-22T11:30:47.795Z,74269.63
2022-08-22T11:32:30.910Z,74241.97
2022-08-22T11:34:12.278Z,74232.06
2022-08-22T11:35:52.715Z,74257.78
2022-08-22T11:37:42.409Z,74269.63
2022-08-22T11:39:40.330Z,74247.88
2022-08-22T11:41:23.775Z,74299.28
2022-08-22T11:43:17.914Z,74317.06
2022-08-22T11:45:02.176Z,74326.94
2022-08-22T11:46:35.849Z,74322.97
2022-08-22T11:48:15.642Z,74354.59
2022-08-22T11:49:53.014Z,74342.75
2022-08-22T11:51:35.860Z,74372.41
2022-08-22T11:53:10.312Z,74350.66
2022-08-22T11:54:55.678Z,74330.88
2022-08-22T11:56:37.715Z,74354.59
2022-08-22T11:58:29.095Z,74311.13
2022-08-22T12:00:16.193Z,74301.25
2022-08-22T12:02:03.988Z,74315.09
2022-08-22T12:03:55.898Z,74319.03
2022-08-22T12:05:43.817Z,74344.72
2022-08-22T12:07:17.059Z,74326.94
2022-08-22T12:08:51.304Z,74307.19
2022-08-22T12:10:34.735Z,74334.84
2022-08-22T12:12:12.616Z,74324.97
2022-08-22T12:14:18.690Z,74319.03
2022-08-22T12:16:10.424Z,74322.97
2022-08-22T12:18:01.676Z,74326.94
2022-08-22T12:20:12.553Z,74332.88
2022-08-22T12:21:43.577Z,74311.13
2022-08-22T12:23:38.078Z,74319.03
2022-08-22T12:25:20.229Z,74322.97
2022-08-22T12:27:13.821Z,74317.06
2022-08-22T12:28:54.825Z,74313.09
2022-08-22T12:30:45.541Z,74322.97
2022-08-22T12:32:33.902Z,74317.06
2022-08-22T12:34:13.627Z,74313.09
2022-08-22T12:35:47.328Z,74340.78
2022-08-22T12:37:52.107Z,74332.88
2022-08-22T12:39:30.569Z,74338.78
2022-08-22T12:41:28.261Z,74322.97
2022-08-22T12:43:23.844Z,74301.25
2022-08-22T12:45:15.571Z,74303.22
2022-08-22T12:46:57.956Z,74324.97
2022-08-22T12:48:31.624Z,74352.63
2022-08-22T12:50:24.018Z,74354.59
2022-08-22T12:52:04.194Z,74366.47
2022-08-22T12:53:56.901Z,74362.50
2022-08-22T12:55:33.398Z,74354.59
2022-08-22T12:57:23.719Z,74350.66
2022-08-22T12:59:17.057Z,74360.53
2022-08-22T13:00:52.582Z,74374.38
2022-08-22T13:02:32.124Z,74340.78
2022-08-22T13:04:13.191Z,74350.66
2022-08-22T13:06:26.517Z,74360.53
2022-08-22T13:08:05.172Z,74366.47
2022-08-22T13:09:43.474Z,74360.53
2022-08-22T13:11:22.735Z,74368.44
2022-08-22T13:12:57.929Z,74370.41
2022-08-22T13:14:37.675Z,74374.38
2022-08-22T13:16:13.681Z,74382.28
2022-08-22T13:17:48.668Z,74382.28
2022-08-22T13:19:25.030Z,74396.09
2022-08-22T13:21:01.490Z,74413.91
2022-08-22T13:22:36.328Z,74394.13
2022-08-22T13:24:38.484Z,74406.00
2022-08-22T13:26:31.770Z,74404.00
2022-08-22T13:28:12.142Z,74396.09
2022-08-22T13:29:48.908Z,74388.19
2022-08-22T13:31:28.166Z,74413.91
2022-08-22T13:33:10.070Z,74413.91
2022-08-22T13:34:51.511Z,74435.63
2022-08-22T13:36:26.735Z,74439.59
2022-08-22T13:38:13.376Z,74435.63
2022-08-22T13:39:49.114Z,74449.47
2022-08-22T13:41:26.876Z,74455.41
2022-08-22T13:43:08.657Z,74453.41
2022-08-22T13:44:47.383Z,74475.16
2022-08-22T13:46:24.105Z,74471.22
2022-08-22T13:48:03.506Z,74469.22
2022-08-22T13:49:39.724Z,74465.28
2022-08-22T13:51:17.221Z,74477.13
2022-08-22T13:52:59.235Z,74481.09
2022-08-22T13:54:40.202Z,74477.13
2022-08-22T13:56:21.404Z,74481.09
2022-08-22T13:58:17.800Z,74489.00
2022-08-22T14:00:05.904Z,74494.94
2022-08-22T14:01:43.308Z,74502.84
2022-08-22T14:03:22.612Z,74514.69
2022-08-22T14:04:58.675Z,74518.66
2022-08-22T14:06:37.745Z,74524.56
2022-08-22T14:08:20.513Z,74516.66
2022-08-22T14:10:06.582Z,74516.66
2022-08-22T14:11:56.589Z,74528.53
2022-08-22T14:13:30.500Z,74540.38
2022-08-22T14:15:08.514Z,74550.25
2022-08-22T14:16:51.343Z,74548.28
2022-08-22T14:18:44.386Z,74540.38
2022-08-22T14:20:31.980Z,74552.25
2022-08-22T14:22:38.716Z,74558.16
2022-08-22T14:24:12.312Z,74568.06
2022-08-22T14:25:46.403Z,74573.97
2022-08-22T14:27:41.889Z,74570.03
2022-08-22T14:29:17.324Z,74581.88
2022-08-22T14:31:02.852Z,74583.88
2022-08-22T14:32:41.984Z,74589.78
2022-08-22T14:34:15.873Z,74597.69
2022-08-22T14:35:55.423Z,74599.69
2022-08-22T14:37:32.538Z,74615.47
2022-08-22T14:39:12.416Z,74619.44
2022-08-22T14:40:46.482Z,74615.47
2022-08-22T14:42:23.960Z,74619.44
2022-08-22T14:44:20.822Z,74627.34
2022-08-22T14:46:02.051Z,74629.31
2022-08-22T14:47:54.950Z,74639.19
2022-08-22T14:49:53.151Z,74647.09
2022-08-22T14:51:26.935Z,74649.09
2022-08-22T14:53:05.610Z,74653.03
2022-08-22T14:54:39.257Z,74658.97
2022-08-22T14:56:18.134Z,74666.88
2022-08-22T14:58:03.624Z,74668.84
2022-08-22T14:59:50.725Z,74678.72
2022-08-22T15:01:29.921Z,74684.66
2022-08-22T15:03:11.418Z,74692.56
2022-08-22T15:04:47.225Z,74698.50
2022-08-22T15:06:48.051Z,74728.16
2022-08-22T15:08:27.383Z,74712.34
2022-08-22T15:10:03.549Z,74716.28
2022-08-22T15:11:42.148Z,74718.25
2022-08-22T15:13:25.062Z,74734.06
2022-08-22T15:15:03.392Z,74732.09
2022-08-22T15:16:45.711Z,74741.97
2022-08-22T15:18:22.780Z,74761.75
2022-08-22T15:20:05.495Z,74773.59
2022-08-22T15:21:41.405Z,74793.38
2022-08-22T15:23:20.052Z,74793.38
2022-08-22T15:25:03.327Z,74793.38
2022-08-22T15:26:41.194Z,74809.19
2022-08-22T15:28:17.158Z,74815.09
2022-08-22T15:30:01.053Z,74823.00
2022-08-22T15:31:36.578Z,74821.03
2022-08-22T15:33:15.338Z,74828.94
2022-08-22T15:34:52.524Z,74834.88
2022-08-22T15:36:27.179Z,74836.84
2022-08-22T15:38:13.168Z,74848.72
2022-08-22T15:40:11.635Z,74860.56
2022-08-22T15:41:47.454Z,74864.53
2022-08-22T15:43:24.909Z,74870.44
2022-08-22T15:44:59.614Z,74880.34
2022-08-22T15:46:41.863Z,74880.34
2022-08-22T15:48:29.755Z,74890.22
2022-08-22T15:50:19.506Z,74904.06
2022-08-22T15:52:00.287Z,74904.06
2022-08-22T15:53:54.134Z,74904.06
2022-08-22T15:55:34.303Z,74898.13
2022-08-22T15:57:11.687Z,74896.16
2022-08-22T15:58:49.031Z,74900.09
2022-08-22T16:00:29.392Z,74896.16
2022-08-22T16:02:13.272Z,74900.09
2022-08-22T16:04:03.835Z,74900.09
2022-08-22T16:05:37.230Z,74902.06
2022-08-22T16:07:29.617Z,74906.03
2022-08-22T16:09:03.600Z,74909.97
2022-08-22T16:10:46.286Z,74915.91
2022-08-22T16:12:51.980Z,74913.94
2022-08-22T16:14:45.887Z,74913.94
2022-08-22T16:16:41.234Z,74896.16
2022-08-22T16:18:44.330Z,74906.03
2022-08-22T16:20:19.939Z,74900.09
2022-08-22T16:21:54.816Z,74911.97
2022-08-22T16:23:29.201Z,74909.97
2022-08-22T16:25:03.548Z,74908.00
2022-08-22T16:26:43.680Z,74915.91
2022-08-22T16:28:56.183Z,74917.88
2022-08-22T16:30:33.163Z,74919.88
2022-08-22T16:32:08.788Z,74919.88
2022-08-22T16:33:45.320Z,74919.88
2022-08-22T16:35:39.049Z,74915.91
2022-08-22T16:37:18.320Z,74931.72
2022-08-22T16:38:53.805Z,74931.72
2022-08-22T16:40:27.491Z,74929.75
2022-08-22T16:42:14.861Z,74925.78
2022-08-22T16:44:11.267Z,74931.72
2022-08-22T16:45:46.676Z,74929.75
2022-08-22T16:47:20.653Z,74941.59
2022-08-22T16:49:00.167Z,74943.59
2022-08-22T16:50:36.413Z,74951.50
2022-08-22T16:52:22.538Z,74965.31
2022-08-22T16:54:10.501Z,74967.31
2022-08-22T16:55:45.836Z,74975.22
2022-08-22T16:57:37.990Z,74979.16
2022-08-22T16:59:23.744Z,74983.13
2022-08-22T17:01:00.420Z,74996.94
2022-08-22T17:02:34.504Z,75004.84
2022-08-22T17:04:11.005Z,75010.78
2022-08-22T17:05:44.301Z,75008.81
2022-08-22T17:07:24.559Z,75018.69
2022-08-22T17:09:04.259Z,75046.38
2022-08-22T17:10:53.276Z,75070.09
2022-08-22T17:12:26.743Z,75085.91
2022-08-22T17:14:27.883Z,75111.59
2022-08-22T17:16:06.715Z,75123.47
2022-08-22T17:18:10.740Z,75125.44
2022-08-22T17:20:02.299Z,75149.16
2022-08-22T17:21:39.197Z,75141.25
2022-08-22T17:23:30.395Z,75163.00
2022-08-22T17:25:22.692Z,75163.00
2022-08-22T17:26:56.321Z,75168.91
2022-08-22T17:28:46.915Z,75188.69
2022-08-22T17:30:29.605Z,75184.72
2022-08-22T17:32:26.355Z,75188.69
2022-08-22T17:34:30.209Z,75196.59
2022-08-22T17:36:27.095Z,75200.53
2022-08-22T17:38:21.775Z,75212.41
2022-08-22T17:40:10.706Z,75216.38
2022-08-22T17:41:53.514Z,75224.28
2022-08-22T17:43:27.748Z,75218.34
2022-08-22T17:45:18.881Z,75216.38
2022-08-22T17:47:11.380Z,75212.41
2022-08-22T17:48:54.394Z,75208.47
2022-08-22T17:50:33.205Z,75220.31
2022-08-22T17:52:07.465Z,75212.41
2022-08-22T17:53:59.147Z,75212.41
2022-08-22T17:55:37.452Z,75208.47
2022-08-22T17:57:13.326Z,75214.38
2022-08-22T17:58:51.191Z,75200.53
2022-08-22T18:00:28.965Z,75200.53
2022-08-22T18:02:17.643Z,75208.47
2022-08-22T18:03:58.965Z,75208.47
2022-08-22T18:05:36.238Z,75220.31
2022-08-22T18:07:16.366Z,75224.28
2022-08-22T18:10:49.832Z,75249.97
2022-08-22T18:12:31.115Z,75249.97
2022-08-22T18:14:22.186Z,75263.81
2022-08-22T18:16:09.067Z,75277.63
2022-08-22T18:17:53.721Z,75279.63
2022-08-22T18:19:45.898Z,75285.53
2022-08-22T18:21:29.364Z,75307.28
2022-08-22T18:23:28.410Z,75313.22
2022-08-22T18:25:09.737Z,75323.09
2022-08-22T18:26:43.879Z,75331.00
2022-08-22T18:28:30.675Z,75334.97
2022-08-22T18:30:12.958Z,75340.91
2022-08-22T18:31:47.161Z,75336.94
2022-08-22T18:33:23.230Z,75346.81
2022-08-22T18:35:15.729Z,75366.59
2022-08-22T18:37:13.515Z,75358.69
2022-08-22T18:38:50.327Z,75372.53
2022-08-22T18:40:26.667Z,75364.63
2022-08-22T18:42:04.061Z,75366.59
2022-08-22T18:43:48.895Z,75374.50
2022-08-22T18:45:44.853Z,75358.69
2022-08-22T18:47:27.691Z,75358.69
2022-08-22T18:49:18.546Z,75356.72
2022-08-22T18:50:52.098Z,75350.78
2022-08-22T18:52:25.857Z,75366.59
2022-08-22T18:54:05.711Z,75366.59
2022-08-22T18:55:50.278Z,75356.72
2022-08-22T18:57:42.526Z,75356.72
2022-08-22T18:59:31.871Z,75350.78
2022-08-22T19:01:44.674Z,75344.84
2022-08-22T19:03:27.638Z,75344.84
2022-08-22T19:05:01.515Z,75344.84
2022-08-22T19:07:02.215Z,75344.84
2022-08-22T19:08:44.771Z,75342.88
2022-08-22T19:10:28.577Z,75344.84
2022-08-22T19:12:17.627Z,75354.72
2022-08-22T19:14:02.748Z,75366.59
2022-08-22T19:15:55.182Z,75380.44
2022-08-22T19:17:28.790Z,75392.28
2022-08-22T19:19:06.726Z,75390.31
2022-08-22T19:21:28.247Z,75392.28
2022-08-22T19:23:31.398Z,75402.19
2022-08-22T19:25:09.125Z,75400.19
2022-08-22T19:27:03.195Z,75406.13
2022-08-22T19:28:37.629Z,75398.22
2022-08-22T19:30:36.126Z,75398.22
2022-08-22T19:32:12.863Z,75410.09
2022-08-22T19:33:48.500Z,75418.00
2022-08-22T19:35:33.048Z,75425.91
2022-08-22T19:37:30.972Z,75427.88
2022-08-22T19:39:09.379Z,75441.72
2022-08-22T19:41:00.443Z,75443.69
2022-08-22T19:42:36.109Z,75451.59
2022-08-22T19:44:14.284Z,75461.47
2022-08-22T19:45:47.951Z,75463.47
2022-08-22T19:47:30.305Z,75465.44
2022-08-22T19:49:05.492Z,75473.34
2022-08-22T19:50:39.309Z,75477.28
2022-08-22T19:52:19.401Z,75481.25
2022-08-22T19:54:03.121Z,75491.13
2022-08-22T19:55:40.125Z,75491.13
2022-08-22T19:57:22.327Z,75495.09
2022-08-22T19:59:11.111Z,75497.06
2022-08-22T20:00:53.972Z,75497.06
2022-08-22T20:02:37.746Z,75503.00
2022-08-22T20:04:23.453Z,75504.97
2022-08-22T20:06:43.581Z,75508.94
2022-08-22T20:08:44.351Z,75510.91
2022-08-22T20:10:21.110Z,75516.84
2022-08-22T20:12:16.294Z,75512.88
2022-08-22T20:13:50.705Z,75516.84
2022-08-22T20:15:25.017Z,75520.78
2022-08-22T20:17:08.134Z,75516.84
2022-08-22T20:19:07.708Z,75526.72
2022-08-22T20:20:59.450Z,75520.78